sensor_id;sensor_type;location;lat;lon;timestamp;temperature;humidity
7708;DHT22;3896;48.758;8.888;2023-12-14T00:00:14;6.70;99.90
7708;DHT22;3896;48.758;8.888;2023-12-14T00:02:39;6.70;99.90
7708;DHT22;3896;48.758;8.888;2023-12-14T00:05:05;6.70;99.90
7708;DHT22;3896;48.758;8.888;2023-12-14T00:07:30;6.70;99.90
7708;DHT22;3896;48.758;8.888;2023-12-14T00:09:56;6.70;99.90
7708;DHT22;3896;48.758;8.888;2023-12-14T00:12:21;6.70;99.90
7708;DHT22;3896;48.758;8.888;2023-12-14T00:14:47;6.60;99.90
7708;DHT22;3896;48.758;8.888;2023-12-14T00:17:12;6.70;99.90
7708;DHT22;3896;48.758;8.888;2023-12-14T00:19:38;6.70;99.90
7708;DHT22;3896;48.758;8.888;2023-12-14T00:22:04;6.70;99.90
7708;DHT22;3896;48.758;8.888;2023-12-14T00:24:29;6.70;99.90
7708;DHT22;3896;48.758;8.888;2023-12-14T00:26:55;6.70;99.90
7708;DHT22;3896;48.758;8.888;2023-12-14T00:29:20;6.70;99.90
7708;DHT22;3896;48.758;8.888;2023-12-14T00:31:46;6.70;99.90
7708;DHT22;3896;48.758;8.888;2023-12-14T00:34:11;6.70;99.90
7708;DHT22;3896;48.758;8.888;2023-12-14T00:36:37;6.70;99.90
7708;DHT22;3896;48.758;8.888;2023-12-14T00:39:02;6.70;99.90
7708;DHT22;3896;48.758;8.888;2023-12-14T00:41:28;6.70;99.90
7708;DHT22;3896;48.758;8.888;2023-12-14T00:43:53;6.70;99.90
7708;DHT22;3896;48.758;8.888;2023-12-14T00:46:19;6.70;99.90
7708;DHT22;3896;48.758;8.888;2023-12-14T00:48:44;6.70;99.90
7708;DHT22;3896;48.758;8.888;2023-12-14T00:51:10;6.70;99.90
7708;DHT22;3896;48.758;8.888;2023-12-14T00:53:35;6.70;99.90
7708;DHT22;3896;48.758;8.888;2023-12-14T00:56:01;6.70;99.90
7708;DHT22;3896;48.758;8.888;2023-12-14T00:58:27;6.70;99.90
7708;DHT22;3896;48.758;8.888;2023-12-14T01:00:52;6.70;99.90
7708;DHT22;3896;48.758;8.888;2023-12-14T01:03:20;6.70;99.90
7708;DHT22;3896;48.758;8.888;2023-12-14T01:05:45;6.70;99.90
7708;DHT22;3896;48.758;8.888;2023-12-14T01:08:11;6.70;99.90
7708;DHT22;3896;48.758;8.888;2023-12-14T01:10:37;6.70;99.90
7708;DHT22;3896;48.758;8.888;2023-12-14T01:13:02;6.70;99.90
7708;DHT22;3896;48.758;8.888;2023-12-14T01:15:28;6.60;99.90
7708;DHT22;3896;48.758;8.888;2023-12-14T01:17:54;6.60;99.90
7708;DHT22;3896;48.758;8.888;2023-12-14T01:20:19;6.60;99.90
7708;DHT22;3896;48.758;8.888;2023-12-14T01:22:45;6.60;99.90
7708;DHT22;3896;48.758;8.888;2023-12-14T01:25:10;6.60;99.90
7708;DHT22;3896;48.758;8.888;2023-12-14T01:27:36;6.50;99.90
7708;DHT22;3896;48.758;8.888;2023-12-14T01:30:02;6.50;99.90
7708;DHT22;3896;48.758;8.888;2023-12-14T01:32:28;6.50;99.90
7708;DHT22;3896;48.758;8.888;2023-12-14T01:34:53;6.50;99.90
7708;DHT22;3896;48.758;8.888;2023-12-14T01:37:19;6.50;99.90
7708;DHT22;3896;48.758;8.888;2023-12-14T01:39:44;6.50;99.90
7708;DHT22;3896;48.758;8.888;2023-12-14T01:42:10;6.50;99.90
7708;DHT22;3896;48.758;8.888;2023-12-14T01:44:35;6.40;99.90
7708;DHT22;3896;48.758;8.888;2023-12-14T01:47:01;6.40;99.90
7708;DHT22;3896;48.758;8.888;2023-12-14T01:49:26;6.40;99.90
7708;DHT22;3896;48.758;8.888;2023-12-14T01:51:52;6.40;99.90
7708;DHT22;3896;48.758;8.888;2023-12-14T01:54:18;6.40;99.90
7708;DHT22;3896;48.758;8.888;2023-12-14T01:56:43;6.40;99.90
7708;DHT22;3896;48.758;8.888;2023-12-14T01:59:09;6.40;99.90
7708;DHT22;3896;48.758;8.888;2023-12-14T02:01:45;6.40;99.90
7708;DHT22;3896;48.758;8.888;2023-12-14T02:04:12;6.40;99.90
7708;DHT22;3896;48.758;8.888;2023-12-14T02:06:38;6.40;99.90
7708;DHT22;3896;48.758;8.888;2023-12-14T02:09:04;6.40;99.90
7708;DHT22;3896;48.758;8.888;2023-12-14T02:11:29;6.40;99.90
7708;DHT22;3896;48.758;8.888;2023-12-14T02:13:55;6.40;99.90
7708;DHT22;3896;48.758;8.888;2023-12-14T02:16:21;6.40;99.90
7708;DHT22;3896;48.758;8.888;2023-12-14T02:18:46;6.30;99.90
7708;DHT22;3896;48.758;8.888;2023-12-14T02:21:12;6.40;99.90
7708;DHT22;3896;48.758;8.888;2023-12-14T02:23:44;6.40;99.90
7708;DHT22;3896;48.758;8.888;2023-12-14T02:26:11;6.30;99.90
7708;DHT22;3896;48.758;8.888;2023-12-14T02:28:36;6.40;99.90
7708;DHT22;3896;48.758;8.888;2023-12-14T02:31:02;6.40;99.90
7708;DHT22;3896;48.758;8.888;2023-12-14T02:33:28;6.40;99.90
7708;DHT22;3896;48.758;8.888;2023-12-14T02:35:53;6.40;99.90
7708;DHT22;3896;48.758;8.888;2023-12-14T02:38:19;6.30;99.90
7708;DHT22;3896;48.758;8.888;2023-12-14T02:40:44;6.30;99.90
7708;DHT22;3896;48.758;8.888;2023-12-14T02:43:10;6.30;99.90
7708;DHT22;3896;48.758;8.888;2023-12-14T02:45:35;6.30;99.90
7708;DHT22;3896;48.758;8.888;2023-12-14T02:48:01;6.30;99.90
7708;DHT22;3896;48.758;8.888;2023-12-14T02:50:26;6.30;99.90
7708;DHT22;3896;48.758;8.888;2023-12-14T02:52:52;6.30;99.90
7708;DHT22;3896;48.758;8.888;2023-12-14T02:55:17;6.30;99.90
7708;DHT22;3896;48.758;8.888;2023-12-14T02:57:43;6.30;99.90
7708;DHT22;3896;48.758;8.888;2023-12-14T03:00:10;6.30;99.90
7708;DHT22;3896;48.758;8.888;2023-12-14T03:02:37;6.30;99.90
7708;DHT22;3896;48.758;8.888;2023-12-14T03:05:03;6.30;99.90
7708;DHT22;3896;48.758;8.888;2023-12-14T03:07:28;6.30;99.90
7708;DHT22;3896;48.758;8.888;2023-12-14T03:09:54;6.30;99.90
7708;DHT22;3896;48.758;8.888;2023-12-14T03:12:19;6.30;99.90
7708;DHT22;3896;48.758;8.888;2023-12-14T03:14:45;6.30;99.90
7708;DHT22;3896;48.758;8.888;2023-12-14T03:17:10;6.30;99.90
7708;DHT22;3896;48.758;8.888;2023-12-14T03:19:39;6.30;99.90
7708;DHT22;3896;48.758;8.888;2023-12-14T03:22:05;6.30;99.90
7708;DHT22;3896;48.758;8.888;2023-12-14T03:24:30;6.30;99.90
7708;DHT22;3896;48.758;8.888;2023-12-14T03:26:56;6.30;99.90
7708;DHT22;3896;48.758;8.888;2023-12-14T03:29:22;6.30;99.90
7708;DHT22;3896;48.758;8.888;2023-12-14T03:31:48;6.30;99.90
7708;DHT22;3896;48.758;8.888;2023-12-14T03:34:13;6.30;99.90
7708;DHT22;3896;48.758;8.888;2023-12-14T03:36:39;6.30;99.90
7708;DHT22;3896;48.758;8.888;2023-12-14T03:39:04;6.30;99.90
7708;DHT22;3896;48.758;8.888;2023-12-14T03:41:31;6.30;99.90
7708;DHT22;3896;48.758;8.888;2023-12-14T03:43:57;6.30;99.90
7708;DHT22;3896;48.758;8.888;2023-12-14T03:46:22;6.40;99.90
7708;DHT22;3896;48.758;8.888;2023-12-14T03:48:48;6.30;99.90
7708;DHT22;3896;48.758;8.888;2023-12-14T03:51:17;6.40;99.90
7708;DHT22;3896;48.758;8.888;2023-12-14T03:53:42;6.40;99.90
7708;DHT22;3896;48.758;8.888;2023-12-14T03:56:08;6.40;99.90
7708;DHT22;3896;48.758;8.888;2023-12-14T03:58:35;6.40;99.90
7708;DHT22;3896;48.758;8.888;2023-12-14T04:01:00;6.40;99.90
7708;DHT22;3896;48.758;8.888;2023-12-14T04:03:26;6.40;99.90
7708;DHT22;3896;48.758;8.888;2023-12-14T04:05:52;6.40;99.90
7708;DHT22;3896;48.758;8.888;2023-12-14T04:08:17;6.40;99.90
7708;DHT22;3896;48.758;8.888;2023-12-14T04:10:43;6.40;99.90
7708;DHT22;3896;48.758;8.888;2023-12-14T04:13:08;6.40;99.90
7708;DHT22;3896;48.758;8.888;2023-12-14T04:15:34;6.40;99.90
7708;DHT22;3896;48.758;8.888;2023-12-14T04:17:59;6.40;99.90
7708;DHT22;3896;48.758;8.888;2023-12-14T04:20:25;6.40;99.90
7708;DHT22;3896;48.758;8.888;2023-12-14T04:22:50;6.40;99.90
7708;DHT22;3896;48.758;8.888;2023-12-14T04:25:16;6.50;99.90
7708;DHT22;3896;48.758;8.888;2023-12-14T04:27:41;6.50;99.90
7708;DHT22;3896;48.758;8.888;2023-12-14T04:30:07;6.50;99.90
7708;DHT22;3896;48.758;8.888;2023-12-14T04:32:36;6.50;99.90
7708;DHT22;3896;48.758;8.888;2023-12-14T04:35:02;6.50;99.90
7708;DHT22;3896;48.758;8.888;2023-12-14T04:37:28;6.50;99.90
7708;DHT22;3896;48.758;8.888;2023-12-14T04:39:55;6.50;99.90
7708;DHT22;3896;48.758;8.888;2023-12-14T04:42:21;6.50;99.90
7708;DHT22;3896;48.758;8.888;2023-12-14T04:44:46;6.50;99.90
7708;DHT22;3896;48.758;8.888;2023-12-14T04:47:12;6.50;99.90
7708;DHT22;3896;48.758;8.888;2023-12-14T04:49:37;6.50;99.90
7708;DHT22;3896;48.758;8.888;2023-12-14T04:52:03;6.60;99.90
7708;DHT22;3896;48.758;8.888;2023-12-14T04:54:28;6.60;99.90
7708;DHT22;3896;48.758;8.888;2023-12-14T04:56:54;6.60;99.90
7708;DHT22;3896;48.758;8.888;2023-12-14T04:59:19;6.60;99.90
7708;DHT22;3896;48.758;8.888;2023-12-14T05:01:45;6.60;99.90
7708;DHT22;3896;48.758;8.888;2023-12-14T05:04:11;6.60;99.90
7708;DHT22;3896;48.758;8.888;2023-12-14T05:06:38;6.60;99.90
7708;DHT22;3896;48.758;8.888;2023-12-14T05:09:03;6.60;99.90
7708;DHT22;3896;48.758;8.888;2023-12-14T05:11:31;6.60;99.90
7708;DHT22;3896;48.758;8.888;2023-12-14T05:13:56;6.70;99.90
7708;DHT22;3896;48.758;8.888;2023-12-14T05:16:23;6.70;99.90
7708;DHT22;3896;48.758;8.888;2023-12-14T05:18:52;6.70;99.90
7708;DHT22;3896;48.758;8.888;2023-12-14T05:21:18;6.70;99.90
7708;DHT22;3896;48.758;8.888;2023-12-14T05:23:44;6.70;99.90
7708;DHT22;3896;48.758;8.888;2023-12-14T05:26:09;6.70;99.90
7708;DHT22;3896;48.758;8.888;2023-12-14T05:28:35;6.70;99.90
7708;DHT22;3896;48.758;8.888;2023-12-14T05:31:01;6.70;99.90
7708;DHT22;3896;48.758;8.888;2023-12-14T05:33:26;6.70;99.90
7708;DHT22;3896;48.758;8.888;2023-12-14T05:35:52;6.70;99.90
7708;DHT22;3896;48.758;8.888;2023-12-14T05:38:18;6.70;99.90
7708;DHT22;3896;48.758;8.888;2023-12-14T05:40:43;6.70;99.90
7708;DHT22;3896;48.758;8.888;2023-12-14T05:43:10;6.70;99.90
7708;DHT22;3896;48.758;8.888;2023-12-14T05:45:35;6.70;99.90
7708;DHT22;3896;48.758;8.888;2023-12-14T05:48:01;6.80;99.90
7708;DHT22;3896;48.758;8.888;2023-12-14T05:50:27;6.80;99.90
7708;DHT22;3896;48.758;8.888;2023-12-14T05:52:53;6.80;99.90
7708;DHT22;3896;48.758;8.888;2023-12-14T05:55:19;6.80;99.90
7708;DHT22;3896;48.758;8.888;2023-12-14T05:57:47;6.80;99.90
7708;DHT22;3896;48.758;8.888;2023-12-14T06:00:13;6.80;99.90
7708;DHT22;3896;48.758;8.888;2023-12-14T06:02:39;6.80;99.90
7708;DHT22;3896;48.758;8.888;2023-12-14T06:05:06;6.80;99.90
7708;DHT22;3896;48.758;8.888;2023-12-14T06:07:32;6.80;99.90
7708;DHT22;3896;48.758;8.888;2023-12-14T06:09:58;6.80;99.90
7708;DHT22;3896;48.758;8.888;2023-12-14T06:12:23;6.80;99.90
7708;DHT22;3896;48.758;8.888;2023-12-14T06:14:50;6.80;99.90
7708;DHT22;3896;48.758;8.888;2023-12-14T06:32:07;6.80;99.90
7708;DHT22;3896;48.758;8.888;2023-12-14T06:34:32;6.90;99.90
7708;DHT22;3896;48.758;8.888;2023-12-14T06:36:58;6.90;99.90
7708;DHT22;3896;48.758;8.888;2023-12-14T06:39:26;6.90;99.90
7708;DHT22;3896;48.758;8.888;2023-12-14T06:41:55;6.90;99.90
7708;DHT22;3896;48.758;8.888;2023-12-14T06:44:20;6.90;99.90
7708;DHT22;3896;48.758;8.888;2023-12-14T06:46:46;6.90;99.90
7708;DHT22;3896;48.758;8.888;2023-12-14T06:49:11;6.90;99.90
7708;DHT22;3896;48.758;8.888;2023-12-14T06:51:37;6.90;99.90
7708;DHT22;3896;48.758;8.888;2023-12-14T06:54:03;6.90;99.90
7708;DHT22;3896;48.758;8.888;2023-12-14T06:56:28;6.90;99.90
7708;DHT22;3896;48.758;8.888;2023-12-14T06:58:54;6.90;99.90
7708;DHT22;3896;48.758;8.888;2023-12-14T07:01:19;6.90;99.90
7708;DHT22;3896;48.758;8.888;2023-12-14T07:03:45;6.90;99.90
7708;DHT22;3896;48.758;8.888;2023-12-14T07:06:14;6.90;99.90
7708;DHT22;3896;48.758;8.888;2023-12-14T07:08:41;6.90;99.90
7708;DHT22;3896;48.758;8.888;2023-12-14T07:11:10;6.90;99.90
7708;DHT22;3896;48.758;8.888;2023-12-14T07:13:37;6.90;99.90
7708;DHT22;3896;48.758;8.888;2023-12-14T07:16:07;7.00;99.90
7708;DHT22;3896;48.758;8.888;2023-12-14T07:18:36;7.00;99.90
7708;DHT22;3896;48.758;8.888;2023-12-14T07:21:03;7.00;99.90
7708;DHT22;3896;48.758;8.888;2023-12-14T07:23:29;7.00;99.90
7708;DHT22;3896;48.758;8.888;2023-12-14T07:25:54;7.00;99.90
7708;DHT22;3896;48.758;8.888;2023-12-14T07:28:21;7.00;99.90
7708;DHT22;3896;48.758;8.888;2023-12-14T07:30:46;7.00;99.90
7708;DHT22;3896;48.758;8.888;2023-12-14T07:33:12;7.00;99.90
7708;DHT22;3896;48.758;8.888;2023-12-14T07:35:38;7.00;99.90
7708;DHT22;3896;48.758;8.888;2023-12-14T07:38:04;7.10;99.90
7708;DHT22;3896;48.758;8.888;2023-12-14T07:40:29;7.00;99.90
7708;DHT22;3896;48.758;8.888;2023-12-14T07:42:57;7.10;99.90
7708;DHT22;3896;48.758;8.888;2023-12-14T07:45:22;7.10;99.90
7708;DHT22;3896;48.758;8.888;2023-12-14T07:47:48;7.10;99.90
7708;DHT22;3896;48.758;8.888;2023-12-14T07:50:14;7.10;99.90
7708;DHT22;3896;48.758;8.888;2023-12-14T07:52:39;7.10;99.90
7708;DHT22;3896;48.758;8.888;2023-12-14T07:55:06;7.10;99.90
7708;DHT22;3896;48.758;8.888;2023-12-14T07:57:32;7.10;99.90
7708;DHT22;3896;48.758;8.888;2023-12-14T07:59:58;7.20;99.90
7708;DHT22;3896;48.758;8.888;2023-12-14T08:02:23;7.20;99.90
7708;DHT22;3896;48.758;8.888;2023-12-14T08:04:49;7.20;99.90
7708;DHT22;3896;48.758;8.888;2023-12-14T08:07:14;7.20;99.90
7708;DHT22;3896;48.758;8.888;2023-12-14T08:09:40;7.20;99.90
7708;DHT22;3896;48.758;8.888;2023-12-14T08:12:06;7.20;99.90
7708;DHT22;3896;48.758;8.888;2023-12-14T08:14:35;7.20;99.90
7708;DHT22;3896;48.758;8.888;2023-12-14T08:17:02;7.30;99.90
7708;DHT22;3896;48.758;8.888;2023-12-14T08:19:28;7.30;99.90
7708;DHT22;3896;48.758;8.888;2023-12-14T08:21:54;7.30;99.90
7708;DHT22;3896;48.758;8.888;2023-12-14T08:24:20;7.40;99.90
7708;DHT22;3896;48.758;8.888;2023-12-14T08:26:45;7.40;99.90
7708;DHT22;3896;48.758;8.888;2023-12-14T08:29:11;7.40;99.90
7708;DHT22;3896;48.758;8.888;2023-12-14T08:31:36;7.40;99.90
7708;DHT22;3896;48.758;8.888;2023-12-14T08:34:02;7.40;99.90
7708;DHT22;3896;48.758;8.888;2023-12-14T08:36:28;7.50;99.90
7708;DHT22;3896;48.758;8.888;2023-12-14T08:38:54;7.50;99.90
7708;DHT22;3896;48.758;8.888;2023-12-14T08:41:19;7.50;99.90
7708;DHT22;3896;48.758;8.888;2023-12-14T08:43:45;7.60;99.90
7708;DHT22;3896;48.758;8.888;2023-12-14T08:46:10;7.60;99.90
7708;DHT22;3896;48.758;8.888;2023-12-14T08:48:36;7.60;99.90
7708;DHT22;3896;48.758;8.888;2023-12-14T08:51:02;7.70;99.90
7708;DHT22;3896;48.758;8.888;2023-12-14T08:53:29;7.70;99.90
7708;DHT22;3896;48.758;8.888;2023-12-14T08:55:55;7.70;99.90
7708;DHT22;3896;48.758;8.888;2023-12-14T08:58:20;7.70;99.90
7708;DHT22;3896;48.758;8.888;2023-12-14T09:00:46;7.80;99.90
7708;DHT22;3896;48.758;8.888;2023-12-14T09:03:12;7.80;99.90
7708;DHT22;3896;48.758;8.888;2023-12-14T09:05:37;7.80;99.90
7708;DHT22;3896;48.758;8.888;2023-12-14T09:08:07;7.90;99.90
7708;DHT22;3896;48.758;8.888;2023-12-14T09:10:33;7.90;99.90
7708;DHT22;3896;48.758;8.888;2023-12-14T09:12:58;7.90;99.90
7708;DHT22;3896;48.758;8.888;2023-12-14T09:15:25;7.90;99.90
7708;DHT22;3896;48.758;8.888;2023-12-14T09:17:51;8.00;99.90
7708;DHT22;3896;48.758;8.888;2023-12-14T09:20:17;8.00;99.90
7708;DHT22;3896;48.758;8.888;2023-12-14T09:22:42;8.00;99.90
7708;DHT22;3896;48.758;8.888;2023-12-14T09:25:08;8.00;99.90
7708;DHT22;3896;48.758;8.888;2023-12-14T09:27:34;8.00;99.90
7708;DHT22;3896;48.758;8.888;2023-12-14T09:30:00;8.10;99.90
7708;DHT22;3896;48.758;8.888;2023-12-14T09:32:25;8.10;99.90
7708;DHT22;3896;48.758;8.888;2023-12-14T09:34:51;8.10;99.90
7708;DHT22;3896;48.758;8.888;2023-12-14T09:37:17;8.10;99.90
7708;DHT22;3896;48.758;8.888;2023-12-14T09:39:42;8.20;99.90
7708;DHT22;3896;48.758;8.888;2023-12-14T09:42:08;8.20;99.90
7708;DHT22;3896;48.758;8.888;2023-12-14T09:44:35;8.30;99.90
7708;DHT22;3896;48.758;8.888;2023-12-14T09:47:01;8.30;99.90
7708;DHT22;3896;48.758;8.888;2023-12-14T09:49:29;8.40;99.90
7708;DHT22;3896;48.758;8.888;2023-12-14T09:51:57;8.40;99.90
7708;DHT22;3896;48.758;8.888;2023-12-14T09:54:24;8.40;99.90
7708;DHT22;3896;48.758;8.888;2023-12-14T09:56:50;8.50;99.90
7708;DHT22;3896;48.758;8.888;2023-12-14T09:59:16;8.60;99.90
7708;DHT22;3896;48.758;8.888;2023-12-14T10:01:42;8.60;99.90
7708;DHT22;3896;48.758;8.888;2023-12-14T10:04:15;8.70;99.90
7708;DHT22;3896;48.758;8.888;2023-12-14T10:06:43;8.70;99.90
7708;DHT22;3896;48.758;8.888;2023-12-14T10:09:09;8.80;99.90
7708;DHT22;3896;48.758;8.888;2023-12-14T10:11:39;8.80;99.90
7708;DHT22;3896;48.758;8.888;2023-12-14T10:14:21;8.80;99.90
7708;DHT22;3896;48.758;8.888;2023-12-14T10:16:47;8.90;99.90
7708;DHT22;3896;48.758;8.888;2023-12-14T10:19:13;8.90;99.90
7708;DHT22;3896;48.758;8.888;2023-12-14T10:21:39;9.00;99.90
7708;DHT22;3896;48.758;8.888;2023-12-14T10:24:05;9.00;99.90
7708;DHT22;3896;48.758;8.888;2023-12-14T10:26:31;9.00;99.90
7708;DHT22;3896;48.758;8.888;2023-12-14T10:28:56;9.10;99.90
7708;DHT22;3896;48.758;8.888;2023-12-14T10:31:24;9.10;99.90
7708;DHT22;3896;48.758;8.888;2023-12-14T10:33:49;9.20;99.90
7708;DHT22;3896;48.758;8.888;2023-12-14T10:36:18;9.20;99.90
7708;DHT22;3896;48.758;8.888;2023-12-14T10:38:48;9.20;99.90
7708;DHT22;3896;48.758;8.888;2023-12-14T10:41:13;9.30;99.90
7708;DHT22;3896;48.758;8.888;2023-12-14T10:43:41;9.40;99.90
7708;DHT22;3896;48.758;8.888;2023-12-14T10:46:07;9.40;99.90
7708;DHT22;3896;48.758;8.888;2023-12-14T10:48:35;9.40;99.90
7708;DHT22;3896;48.758;8.888;2023-12-14T10:51:02;9.50;99.90
7708;DHT22;3896;48.758;8.888;2023-12-14T10:53:28;9.50;99.90
7708;DHT22;3896;48.758;8.888;2023-12-14T10:55:56;9.50;99.90
7708;DHT22;3896;48.758;8.888;2023-12-14T10:58:23;9.60;99.90
7708;DHT22;3896;48.758;8.888;2023-12-14T11:01:01;9.60;99.90
7708;DHT22;3896;48.758;8.888;2023-12-14T11:03:30;9.60;99.90
7708;DHT22;3896;48.758;8.888;2023-12-14T11:05:57;9.60;99.90
7708;DHT22;3896;48.758;8.888;2023-12-14T11:08:24;9.70;99.90
7708;DHT22;3896;48.758;8.888;2023-12-14T11:10:54;9.70;99.90
7708;DHT22;3896;48.758;8.888;2023-12-14T11:13:25;9.70;99.90
7708;DHT22;3896;48.758;8.888;2023-12-14T11:15:52;9.80;99.90
7708;DHT22;3896;48.758;8.888;2023-12-14T11:23:15;9.90;99.90
7708;DHT22;3896;48.758;8.888;2023-12-14T11:25:43;9.90;99.90
7708;DHT22;3896;48.758;8.888;2023-12-14T11:28:09;9.90;99.90
7708;DHT22;3896;48.758;8.888;2023-12-14T11:30:36;9.90;99.90
7708;DHT22;3896;48.758;8.888;2023-12-14T11:33:02;9.90;99.90
7708;DHT22;3896;48.758;8.888;2023-12-14T11:35:28;9.90;99.90
7708;DHT22;3896;48.758;8.888;2023-12-14T11:37:56;10.00;99.90
7708;DHT22;3896;48.758;8.888;2023-12-14T11:40:27;9.90;99.90
7708;DHT22;3896;48.758;8.888;2023-12-14T11:43:01;9.90;99.90
7708;DHT22;3896;48.758;8.888;2023-12-14T11:45:27;9.90;99.90
7708;DHT22;3896;48.758;8.888;2023-12-14T11:47:53;9.90;99.90
7708;DHT22;3896;48.758;8.888;2023-12-14T11:50:19;9.90;99.90
7708;DHT22;3896;48.758;8.888;2023-12-14T11:52:44;10.00;99.90
7708;DHT22;3896;48.758;8.888;2023-12-14T11:55:10;10.00;99.90
7708;DHT22;3896;48.758;8.888;2023-12-14T11:57:36;10.10;99.90
7708;DHT22;3896;48.758;8.888;2023-12-14T12:00:02;10.10;99.90
7708;DHT22;3896;48.758;8.888;2023-12-14T12:02:28;10.20;99.90
7708;DHT22;3896;48.758;8.888;2023-12-14T12:04:54;10.20;99.90
7708;DHT22;3896;48.758;8.888;2023-12-14T12:07:20;10.30;99.90
7708;DHT22;3896;48.758;8.888;2023-12-14T12:09:47;10.30;99.90
7708;DHT22;3896;48.758;8.888;2023-12-14T12:12:13;10.30;99.90
7708;DHT22;3896;48.758;8.888;2023-12-14T12:14:39;10.30;99.90
7708;DHT22;3896;48.758;8.888;2023-12-14T12:17:05;10.30;99.90
7708;DHT22;3896;48.758;8.888;2023-12-14T12:19:33;10.30;99.90
7708;DHT22;3896;48.758;8.888;2023-12-14T12:21:58;10.40;99.90
7708;DHT22;3896;48.758;8.888;2023-12-14T12:24:24;10.40;99.90
7708;DHT22;3896;48.758;8.888;2023-12-14T12:26:49;10.40;99.90
7708;DHT22;3896;48.758;8.888;2023-12-14T12:29:15;10.40;99.90
7708;DHT22;3896;48.758;8.888;2023-12-14T12:31:41;10.40;99.90
7708;DHT22;3896;48.758;8.888;2023-12-14T12:34:08;10.50;99.90
7708;DHT22;3896;48.758;8.888;2023-12-14T12:36:34;10.50;99.90
7708;DHT22;3896;48.758;8.888;2023-12-14T12:38:59;10.50;99.90
7708;DHT22;3896;48.758;8.888;2023-12-14T12:41:25;10.50;99.90
7708;DHT22;3896;48.758;8.888;2023-12-14T12:43:50;10.50;99.90
7708;DHT22;3896;48.758;8.888;2023-12-14T12:46:16;10.50;99.90
7708;DHT22;3896;48.758;8.888;2023-12-14T12:48:41;10.50;99.90
7708;DHT22;3896;48.758;8.888;2023-12-14T12:51:08;10.40;99.90
7708;DHT22;3896;48.758;8.888;2023-12-14T12:53:34;10.40;99.90
7708;DHT22;3896;48.758;8.888;2023-12-14T12:55:59;10.40;99.90
7708;DHT22;3896;48.758;8.888;2023-12-14T12:58:25;10.30;99.90
7708;DHT22;3896;48.758;8.888;2023-12-14T13:00:50;10.30;99.90
7708;DHT22;3896;48.758;8.888;2023-12-14T13:03:16;10.30;99.90
7708;DHT22;3896;48.758;8.888;2023-12-14T13:05:42;10.30;99.90
7708;DHT22;3896;48.758;8.888;2023-12-14T13:08:08;10.30;99.90
7708;DHT22;3896;48.758;8.888;2023-12-14T13:10:34;10.30;99.90
7708;DHT22;3896;48.758;8.888;2023-12-14T13:12:59;10.30;99.90
7708;DHT22;3896;48.758;8.888;2023-12-14T13:15:25;10.30;99.90
7708;DHT22;3896;48.758;8.888;2023-12-14T13:17:52;10.20;99.90
7708;DHT22;3896;48.758;8.888;2023-12-14T13:20:18;10.10;99.90
7708;DHT22;3896;48.758;8.888;2023-12-14T13:22:44;10.10;99.90
7708;DHT22;3896;48.758;8.888;2023-12-14T13:25:10;10.10;99.90
7708;DHT22;3896;48.758;8.888;2023-12-14T13:27:36;10.00;99.90
7708;DHT22;3896;48.758;8.888;2023-12-14T13:30:02;10.00;99.90
7708;DHT22;3896;48.758;8.888;2023-12-14T13:32:28;10.00;99.90
7708;DHT22;3896;48.758;8.888;2023-12-14T13:34:53;9.90;99.90
7708;DHT22;3896;48.758;8.888;2023-12-14T13:37:19;9.90;99.90
7708;DHT22;3896;48.758;8.888;2023-12-14T13:39:44;9.80;99.90
7708;DHT22;3896;48.758;8.888;2023-12-14T13:42:10;9.80;99.90
7708;DHT22;3896;48.758;8.888;2023-12-14T13:44:36;9.80;99.90
7708;DHT22;3896;48.758;8.888;2023-12-14T13:47:03;9.70;99.90
7708;DHT22;3896;48.758;8.888;2023-12-14T13:49:28;9.70;99.90
7708;DHT22;3896;48.758;8.888;2023-12-14T13:51:54;9.70;99.90
7708;DHT22;3896;48.758;8.888;2023-12-14T13:54:20;9.70;99.90
7708;DHT22;3896;48.758;8.888;2023-12-14T13:56:45;9.60;99.90
7708;DHT22;3896;48.758;8.888;2023-12-14T13:59:11;9.60;99.90
7708;DHT22;3896;48.758;8.888;2023-12-14T14:01:36;9.60;99.90
7708;DHT22;3896;48.758;8.888;2023-12-14T14:04:03;9.50;99.90
7708;DHT22;3896;48.758;8.888;2023-12-14T14:06:28;9.50;99.90
7708;DHT22;3896;48.758;8.888;2023-12-14T14:08:54;9.50;99.90
7708;DHT22;3896;48.758;8.888;2023-12-14T14:11:21;9.40;99.90
7708;DHT22;3896;48.758;8.888;2023-12-14T14:13:47;9.40;99.90
7708;DHT22;3896;48.758;8.888;2023-12-14T14:16:13;9.40;99.90
7708;DHT22;3896;48.758;8.888;2023-12-14T14:18:38;9.40;99.90
7708;DHT22;3896;48.758;8.888;2023-12-14T14:21:04;9.40;99.90
7708;DHT22;3896;48.758;8.888;2023-12-14T14:23:33;9.40;99.90
7708;DHT22;3896;48.758;8.888;2023-12-14T14:25:59;9.30;99.90
7708;DHT22;3896;48.758;8.888;2023-12-14T14:28:25;9.30;99.90
7708;DHT22;3896;48.758;8.888;2023-12-14T14:30:50;9.30;99.90
7708;DHT22;3896;48.758;8.888;2023-12-14T14:33:16;9.20;99.90
7708;DHT22;3896;48.758;8.888;2023-12-14T14:35:45;9.20;99.90
7708;DHT22;3896;48.758;8.888;2023-12-14T14:38:14;9.10;99.90
7708;DHT22;3896;48.758;8.888;2023-12-14T14:40:41;9.10;99.90
7708;DHT22;3896;48.758;8.888;2023-12-14T14:43:08;9.10;99.90
7708;DHT22;3896;48.758;8.888;2023-12-14T14:45:34;9.10;99.90
7708;DHT22;3896;48.758;8.888;2023-12-14T14:48:00;9.00;99.90
7708;DHT22;3896;48.758;8.888;2023-12-14T14:50:26;9.00;99.90
7708;DHT22;3896;48.758;8.888;2023-12-14T14:52:52;9.00;99.90
7708;DHT22;3896;48.758;8.888;2023-12-14T14:55:17;8.90;99.90
7708;DHT22;3896;48.758;8.888;2023-12-14T14:57:43;8.90;99.90
7708;DHT22;3896;48.758;8.888;2023-12-14T15:00:09;8.90;99.90
7708;DHT22;3896;48.758;8.888;2023-12-14T15:02:35;8.90;99.90
7708;DHT22;3896;48.758;8.888;2023-12-14T15:05:00;8.90;99.90
7708;DHT22;3896;48.758;8.888;2023-12-14T15:07:26;8.90;99.90
7708;DHT22;3896;48.758;8.888;2023-12-14T15:09:54;8.80;99.90
7708;DHT22;3896;48.758;8.888;2023-12-14T15:12:19;8.80;99.90
7708;DHT22;3896;48.758;8.888;2023-12-14T15:14:45;8.80;99.90
7708;DHT22;3896;48.758;8.888;2023-12-14T15:17:12;8.80;99.90
7708;DHT22;3896;48.758;8.888;2023-12-14T15:19:37;8.80;99.90
7708;DHT22;3896;48.758;8.888;2023-12-14T15:22:03;8.70;99.90
7708;DHT22;3896;48.758;8.888;2023-12-14T15:24:30;8.70;99.90
7708;DHT22;3896;48.758;8.888;2023-12-14T15:26:57;8.70;99.90
7708;DHT22;3896;48.758;8.888;2023-12-14T15:29:23;8.60;99.90
7708;DHT22;3896;48.758;8.888;2023-12-14T15:31:49;8.60;99.90
7708;DHT22;3896;48.758;8.888;2023-12-14T15:34:17;8.60;99.90
7708;DHT22;3896;48.758;8.888;2023-12-14T15:36:43;8.60;99.90
7708;DHT22;3896;48.758;8.888;2023-12-14T15:39:09;8.60;99.90
7708;DHT22;3896;48.758;8.888;2023-12-14T15:41:34;8.60;99.90
7708;DHT22;3896;48.758;8.888;2023-12-14T15:44:01;8.50;99.90
7708;DHT22;3896;48.758;8.888;2023-12-14T15:46:26;8.50;99.90
7708;DHT22;3896;48.758;8.888;2023-12-14T15:48:52;8.50;99.90
7708;DHT22;3896;48.758;8.888;2023-12-14T15:51:18;8.50;99.90
7708;DHT22;3896;48.758;8.888;2023-12-14T15:53:43;8.50;99.90
7708;DHT22;3896;48.758;8.888;2023-12-14T15:56:09;8.40;99.90
7708;DHT22;3896;48.758;8.888;2023-12-14T15:58:35;8.40;99.90
7708;DHT22;3896;48.758;8.888;2023-12-14T16:01:00;8.40;99.90
7708;DHT22;3896;48.758;8.888;2023-12-14T16:03:26;8.40;99.90
7708;DHT22;3896;48.758;8.888;2023-12-14T16:05:52;8.40;99.90
7708;DHT22;3896;48.758;8.888;2023-12-14T16:08:17;8.40;99.90
7708;DHT22;3896;48.758;8.888;2023-12-14T16:10:43;8.40;99.90
7708;DHT22;3896;48.758;8.888;2023-12-14T16:13:10;8.40;99.90
7708;DHT22;3896;48.758;8.888;2023-12-14T16:15:36;8.40;99.90
7708;DHT22;3896;48.758;8.888;2023-12-14T16:18:01;8.40;99.90
7708;DHT22;3896;48.758;8.888;2023-12-14T16:20:27;8.30;99.90
7708;DHT22;3896;48.758;8.888;2023-12-14T16:22:53;8.30;99.90
7708;DHT22;3896;48.758;8.888;2023-12-14T16:25:19;8.30;99.90
7708;DHT22;3896;48.758;8.888;2023-12-14T16:27:44;8.30;99.90